sensor_id;sensor_type;location;lat;lon;timestamp;pressure;altitude;pressure_sealevel;temperature
12854;BMP180;6495;51.808;7.478;2023-07-13T00:01:16;100987.00;;;20.70
12854;BMP180;6495;51.808;7.478;2023-07-13T00:03:45;100987.00;;;20.70
12854;BMP180;6495;51.808;7.478;2023-07-13T00:06:13;100979.00;;;20.70
12854;BMP180;6495;51.808;7.478;2023-07-13T00:08:41;100982.00;;;20.70
12854;BMP180;6495;51.808;7.478;2023-07-13T00:11:10;100994.00;;;20.60
12854;BMP180;6495;51.808;7.478;2023-07-13T00:13:38;100997.00;;;20.60
12854;BMP180;6495;51.808;7.478;2023-07-13T00:16:08;100993.00;;;20.60
12854;BMP180;6495;51.808;7.478;2023-07-13T00:18:39;100985.00;;;20.50
12854;BMP180;6495;51.808;7.478;2023-07-13T00:21:08;100991.00;;;20.50
12854;BMP180;6495;51.808;7.478;2023-07-13T00:23:40;100990.00;;;20.50
12854;BMP180;6495;51.808;7.478;2023-07-13T00:26:11;100981.00;;;20.40
12854;BMP180;6495;51.808;7.478;2023-07-13T00:28:40;100979.00;;;20.30
12854;BMP180;6495;51.808;7.478;2023-07-13T00:31:09;100990.00;;;20.20
12854;BMP180;6495;51.808;7.478;2023-07-13T00:33:40;100985.00;;;20.10
12854;BMP180;6495;51.808;7.478;2023-07-13T00:36:10;100989.00;;;20.00
12854;BMP180;6495;51.808;7.478;2023-07-13T00:38:38;100986.00;;;20.00
12854;BMP180;6495;51.808;7.478;2023-07-13T00:41:08;100990.00;;;19.90
12854;BMP180;6495;51.808;7.478;2023-07-13T00:43:36;101003.00;;;19.90
12854;BMP180;6495;51.808;7.478;2023-07-13T00:46:21;101000.00;;;19.80
12854;BMP180;6495;51.808;7.478;2023-07-13T00:48:53;100999.00;;;19.80
12854;BMP180;6495;51.808;7.478;2023-07-13T00:51:34;100999.00;;;19.80
12854;BMP180;6495;51.808;7.478;2023-07-13T00:54:07;100990.00;;;19.70
12854;BMP180;6495;51.808;7.478;2023-07-13T00:56:39;100988.00;;;19.70
12854;BMP180;6495;51.808;7.478;2023-07-13T00:59:10;100987.00;;;19.70
12854;BMP180;6495;51.808;7.478;2023-07-13T01:01:39;100991.00;;;19.70
12854;BMP180;6495;51.808;7.478;2023-07-13T01:04:10;100983.00;;;19.60
12854;BMP180;6495;51.808;7.478;2023-07-13T01:06:42;100988.00;;;19.60
12854;BMP180;6495;51.808;7.478;2023-07-13T01:09:12;100990.00;;;19.50
12854;BMP180;6495;51.808;7.478;2023-07-13T01:11:41;100988.00;;;19.50
12854;BMP180;6495;51.808;7.478;2023-07-13T01:14:09;100996.00;;;19.50
12854;BMP180;6495;51.808;7.478;2023-07-13T01:16:40;100995.00;;;19.40
12854;BMP180;6495;51.808;7.478;2023-07-13T01:19:28;100990.00;;;19.40
12854;BMP180;6495;51.808;7.478;2023-07-13T01:22:07;100996.00;;;19.30
12854;BMP180;6495;51.808;7.478;2023-07-13T01:24:40;100990.00;;;19.20
12854;BMP180;6495;51.808;7.478;2023-07-13T01:27:11;100985.00;;;19.20
12854;BMP180;6495;51.808;7.478;2023-07-13T01:29:43;100984.00;;;19.20
12854;BMP180;6495;51.808;7.478;2023-07-13T01:32:16;100983.00;;;19.20
12854;BMP180;6495;51.808;7.478;2023-07-13T01:34:51;100981.00;;;19.20
12854;BMP180;6495;51.808;7.478;2023-07-13T01:37:24;100976.00;;;19.20
12854;BMP180;6495;51.808;7.478;2023-07-13T01:39:53;100973.00;;;19.10
12854;BMP180;6495;51.808;7.478;2023-07-13T01:42:21;100977.00;;;19.10
12854;BMP180;6495;51.808;7.478;2023-07-13T01:44:49;100972.00;;;19.00
12854;BMP180;6495;51.808;7.478;2023-07-13T01:47:18;100981.00;;;19.00
12854;BMP180;6495;51.808;7.478;2023-07-13T01:49:46;100987.00;;;19.00
12854;BMP180;6495;51.808;7.478;2023-07-13T01:52:14;100980.00;;;18.90
12854;BMP180;6495;51.808;7.478;2023-07-13T01:54:44;100983.00;;;18.90
12854;BMP180;6495;51.808;7.478;2023-07-13T01:57:12;100985.00;;;18.80
12854;BMP180;6495;51.808;7.478;2023-07-13T01:59:41;100991.00;;;18.80
12854;BMP180;6495;51.808;7.478;2023-07-13T02:02:09;100992.00;;;18.80
12854;BMP180;6495;51.808;7.478;2023-07-13T02:04:37;100991.00;;;18.70
12854;BMP180;6495;51.808;7.478;2023-07-13T02:07:07;100999.00;;;18.70
12854;BMP180;6495;51.808;7.478;2023-07-13T02:09:36;100998.00;;;18.70
12854;BMP180;6495;51.808;7.478;2023-07-13T02:12:07;100999.00;;;18.60
12854;BMP180;6495;51.808;7.478;2023-07-13T02:14:35;100998.00;;;18.60
12854;BMP180;6495;51.808;7.478;2023-07-13T02:17:04;100988.00;;;18.60
12854;BMP180;6495;51.808;7.478;2023-07-13T02:19:33;101003.00;;;18.60
12854;BMP180;6495;51.808;7.478;2023-07-13T02:22:01;100997.00;;;18.50
12854;BMP180;6495;51.808;7.478;2023-07-13T02:24:29;100996.00;;;18.50
12854;BMP180;6495;51.808;7.478;2023-07-13T02:26:58;100998.00;;;18.50
12854;BMP180;6495;51.808;7.478;2023-07-13T02:29:27;100999.00;;;18.50
12854;BMP180;6495;51.808;7.478;2023-07-13T02:31:56;100988.00;;;18.40
12854;BMP180;6495;51.808;7.478;2023-07-13T02:34:24;100994.00;;;18.40
12854;BMP180;6495;51.808;7.478;2023-07-13T02:36:52;100984.00;;;18.40
12854;BMP180;6495;51.808;7.478;2023-07-13T02:39:21;100982.00;;;18.30
12854;BMP180;6495;51.808;7.478;2023-07-13T02:41:49;100988.00;;;18.30
12854;BMP180;6495;51.808;7.478;2023-07-13T02:44:17;100985.00;;;18.30
12854;BMP180;6495;51.808;7.478;2023-07-13T02:46:47;100985.00;;;18.30
12854;BMP180;6495;51.808;7.478;2023-07-13T02:49:15;100993.00;;;18.20
12854;BMP180;6495;51.808;7.478;2023-07-13T02:51:44;100990.00;;;18.20
12854;BMP180;6495;51.808;7.478;2023-07-13T02:54:12;100996.00;;;18.20
12854;BMP180;6495;51.808;7.478;2023-07-13T02:56:41;100988.00;;;18.20
12854;BMP180;6495;51.808;7.478;2023-07-13T02:59:10;100988.00;;;18.20
12854;BMP180;6495;51.808;7.478;2023-07-13T03:01:39;100988.00;;;18.10
12854;BMP180;6495;51.808;7.478;2023-07-13T03:04:09;100998.00;;;18.10
12854;BMP180;6495;51.808;7.478;2023-07-13T03:06:37;100992.00;;;18.10
12854;BMP180;6495;51.808;7.478;2023-07-13T03:09:06;100991.00;;;18.10
12854;BMP180;6495;51.808;7.478;2023-07-13T03:11:38;101002.00;;;18.00
12854;BMP180;6495;51.808;7.478;2023-07-13T03:14:27;101000.00;;;18.00
12854;BMP180;6495;51.808;7.478;2023-07-13T03:16:56;101006.00;;;18.00
12854;BMP180;6495;51.808;7.478;2023-07-13T03:19:29;101009.00;;;18.00
12854;BMP180;6495;51.808;7.478;2023-07-13T03:21:57;101006.00;;;17.90
12854;BMP180;6495;51.808;7.478;2023-07-13T03:24:26;101004.00;;;17.90
12854;BMP180;6495;51.808;7.478;2023-07-13T03:26:56;101007.00;;;17.90
12854;BMP180;6495;51.808;7.478;2023-07-13T03:29:24;101005.00;;;17.80
12854;BMP180;6495;51.808;7.478;2023-07-13T03:31:52;101011.00;;;17.80
12854;BMP180;6495;51.808;7.478;2023-07-13T03:34:22;101017.00;;;17.80
12854;BMP180;6495;51.808;7.478;2023-07-13T03:36:54;101020.00;;;17.90
12854;BMP180;6495;51.808;7.478;2023-07-13T03:39:22;101012.00;;;17.80
12854;BMP180;6495;51.808;7.478;2023-07-13T03:41:54;101022.00;;;17.80
12854;BMP180;6495;51.808;7.478;2023-07-13T03:44:23;101026.00;;;17.80
12854;BMP180;6495;51.808;7.478;2023-07-13T03:46:56;101031.00;;;17.80
12854;BMP180;6495;51.808;7.478;2023-07-13T03:49:24;101021.00;;;17.80
12854;BMP180;6495;51.808;7.478;2023-07-13T03:51:54;101019.00;;;17.70
12854;BMP180;6495;51.808;7.478;2023-07-13T03:54:23;101021.00;;;17.80
12854;BMP180;6495;51.808;7.478;2023-07-13T03:56:52;101020.00;;;17.80
12854;BMP180;6495;51.808;7.478;2023-07-13T03:59:21;101021.00;;;17.80
12854;BMP180;6495;51.808;7.478;2023-07-13T04:01:51;101027.00;;;17.70
12854;BMP180;6495;51.808;7.478;2023-07-13T04:04:19;101027.00;;;17.70
12854;BMP180;6495;51.808;7.478;2023-07-13T04:06:48;101030.00;;;17.60
12854;BMP180;6495;51.808;7.478;2023-07-13T04:09:17;101037.00;;;17.60
12854;BMP180;6495;51.808;7.478;2023-07-13T04:11:46;101035.00;;;17.60
12854;BMP180;6495;51.808;7.478;2023-07-13T04:14:14;101046.00;;;17.60
12854;BMP180;6495;51.808;7.478;2023-07-13T04:16:43;101042.00;;;17.60
12854;BMP180;6495;51.808;7.478;2023-07-13T04:19:13;101034.00;;;17.60
12854;BMP180;6495;51.808;7.478;2023-07-13T04:21:41;101041.00;;;17.60
12854;BMP180;6495;51.808;7.478;2023-07-13T04:24:11;101037.00;;;17.60
12854;BMP180;6495;51.808;7.478;2023-07-13T04:26:41;101036.00;;;17.60
12854;BMP180;6495;51.808;7.478;2023-07-13T04:29:09;101048.00;;;17.60
12854;BMP180;6495;51.808;7.478;2023-07-13T04:31:38;101038.00;;;17.60
12854;BMP180;6495;51.808;7.478;2023-07-13T04:34:06;101039.00;;;17.60
12854;BMP180;6495;51.808;7.478;2023-07-13T04:36:35;101045.00;;;17.60
12854;BMP180;6495;51.808;7.478;2023-07-13T04:39:04;101046.00;;;17.60
12854;BMP180;6495;51.808;7.478;2023-07-13T04:41:33;101051.00;;;17.60
12854;BMP180;6495;51.808;7.478;2023-07-13T04:44:03;101045.00;;;17.60
12854;BMP180;6495;51.808;7.478;2023-07-13T04:46:31;101040.00;;;17.60
12854;BMP180;6495;51.808;7.478;2023-07-13T04:49:00;101048.00;;;17.60
12854;BMP180;6495;51.808;7.478;2023-07-13T04:51:31;101047.00;;;17.60
12854;BMP180;6495;51.808;7.478;2023-07-13T04:53:59;101052.00;;;17.60
12854;BMP180;6495;51.808;7.478;2023-07-13T04:56:28;101043.00;;;17.60
12854;BMP180;6495;51.808;7.478;2023-07-13T04:58:57;101058.00;;;17.60
12854;BMP180;6495;51.808;7.478;2023-07-13T05:01:27;101056.00;;;17.60
12854;BMP180;6495;51.808;7.478;2023-07-13T05:03:55;101054.00;;;17.70
12854;BMP180;6495;51.808;7.478;2023-07-13T05:06:26;101052.00;;;17.70
12854;BMP180;6495;51.808;7.478;2023-07-13T05:08:55;101063.00;;;17.70
12854;BMP180;6495;51.808;7.478;2023-07-13T05:11:24;101060.00;;;17.70
12854;BMP180;6495;51.808;7.478;2023-07-13T05:13:52;101066.00;;;17.70
12854;BMP180;6495;51.808;7.478;2023-07-13T05:16:21;101073.00;;;17.80
12854;BMP180;6495;51.808;7.478;2023-07-13T05:18:50;101071.00;;;17.80
12854;BMP180;6495;51.808;7.478;2023-07-13T05:21:19;101070.00;;;17.80
12854;BMP180;6495;51.808;7.478;2023-07-13T05:23:48;101070.00;;;17.80
12854;BMP180;6495;51.808;7.478;2023-07-13T05:26:16;101088.00;;;17.80
12854;BMP180;6495;51.808;7.478;2023-07-13T05:28:44;101088.00;;;17.80
12854;BMP180;6495;51.808;7.478;2023-07-13T05:31:13;101085.00;;;17.90
12854;BMP180;6495;51.808;7.478;2023-07-13T05:33:42;101079.00;;;17.90
12854;BMP180;6495;51.808;7.478;2023-07-13T05:36:12;101078.00;;;17.90
12854;BMP180;6495;51.808;7.478;2023-07-13T05:38:40;101083.00;;;17.90
12854;BMP180;6495;51.808;7.478;2023-07-13T05:41:08;101086.00;;;18.00
12854;BMP180;6495;51.808;7.478;2023-07-13T05:43:37;101092.00;;;18.00
12854;BMP180;6495;51.808;7.478;2023-07-13T05:46:05;101094.00;;;18.00
12854;BMP180;6495;51.808;7.478;2023-07-13T05:48:34;101095.00;;;18.00
12854;BMP180;6495;51.808;7.478;2023-07-13T05:51:02;101103.00;;;18.00
12854;BMP180;6495;51.808;7.478;2023-07-13T05:53:33;101099.00;;;18.00
12854;BMP180;6495;51.808;7.478;2023-07-13T05:56:02;101101.00;;;18.10
12854;BMP180;6495;51.808;7.478;2023-07-13T05:58:31;101093.00;;;18.10
12854;BMP180;6495;51.808;7.478;2023-07-13T06:01:01;101104.00;;;18.30
12854;BMP180;6495;51.808;7.478;2023-07-13T06:03:31;101101.00;;;18.40
12854;BMP180;6495;51.808;7.478;2023-07-13T06:05:59;101105.00;;;18.50
12854;BMP180;6495;51.808;7.478;2023-07-13T06:08:28;101108.00;;;18.60
12854;BMP180;6495;51.808;7.478;2023-07-13T06:11:04;101107.00;;;18.70
12854;BMP180;6495;51.808;7.478;2023-07-13T06:13:33;101100.00;;;18.80
12854;BMP180;6495;51.808;7.478;2023-07-13T06:16:03;101100.00;;;18.90
12854;BMP180;6495;51.808;7.478;2023-07-13T06:18:33;101100.00;;;18.90
12854;BMP180;6495;51.808;7.478;2023-07-13T06:21:06;101111.00;;;19.00
12854;BMP180;6495;51.808;7.478;2023-07-13T06:23:35;101119.00;;;19.20
12854;BMP180;6495;51.808;7.478;2023-07-13T06:26:06;101109.00;;;19.30
12854;BMP180;6495;51.808;7.478;2023-07-13T06:28:36;101119.00;;;19.40
12854;BMP180;6495;51.808;7.478;2023-07-13T06:31:09;101116.00;;;19.50
12854;BMP180;6495;51.808;7.478;2023-07-13T06:33:38;101115.00;;;19.70
12854;BMP180;6495;51.808;7.478;2023-07-13T06:36:08;101131.00;;;19.80
12854;BMP180;6495;51.808;7.478;2023-07-13T06:38:37;101130.00;;;19.80
12854;BMP180;6495;51.808;7.478;2023-07-13T06:41:08;101137.00;;;19.90
12854;BMP180;6495;51.808;7.478;2023-07-13T06:43:37;101139.00;;;19.90
12854;BMP180;6495;51.808;7.478;2023-07-13T06:46:06;101135.00;;;19.90
12854;BMP180;6495;51.808;7.478;2023-07-13T06:48:34;101141.00;;;20.00
12854;BMP180;6495;51.808;7.478;2023-07-13T06:51:03;101136.00;;;20.00
12854;BMP180;6495;51.808;7.478;2023-07-13T06:53:32;101136.00;;;20.10
12854;BMP180;6495;51.808;7.478;2023-07-13T06:56:00;101144.00;;;20.10
12854;BMP180;6495;51.808;7.478;2023-07-13T06:58:30;101144.00;;;20.10
12854;BMP180;6495;51.808;7.478;2023-07-13T07:00:58;101137.00;;;20.10
12854;BMP180;6495;51.808;7.478;2023-07-13T07:03:27;101142.00;;;20.20
12854;BMP180;6495;51.808;7.478;2023-07-13T07:06:01;101149.00;;;20.30
12854;BMP180;6495;51.808;7.478;2023-07-13T07:08:29;101140.00;;;20.30
12854;BMP180;6495;51.808;7.478;2023-07-13T07:10:58;101147.00;;;20.40
12854;BMP180;6495;51.808;7.478;2023-07-13T07:13:26;101148.00;;;20.50
12854;BMP180;6495;51.808;7.478;2023-07-13T07:15:56;101164.00;;;20.70
12854;BMP180;6495;51.808;7.478;2023-07-13T07:18:27;101157.00;;;20.80
12854;BMP180;6495;51.808;7.478;2023-07-13T07:20:55;101161.00;;;20.90
12854;BMP180;6495;51.808;7.478;2023-07-13T07:23:23;101158.00;;;20.90
12854;BMP180;6495;51.808;7.478;2023-07-13T07:25:52;101160.00;;;21.00
12854;BMP180;6495;51.808;7.478;2023-07-13T07:28:20;101162.00;;;21.00
12854;BMP180;6495;51.808;7.478;2023-07-13T07:30:54;101156.00;;;21.00
12854;BMP180;6495;51.808;7.478;2023-07-13T07:33:27;101164.00;;;21.10
12854;BMP180;6495;51.808;7.478;2023-07-13T07:35:55;101161.00;;;21.20
12854;BMP180;6495;51.808;7.478;2023-07-13T07:38:26;101166.00;;;21.20
12854;BMP180;6495;51.808;7.478;2023-07-13T07:40:55;101158.00;;;21.30
12854;BMP180;6495;51.808;7.478;2023-07-13T07:43:26;101162.00;;;21.40
12854;BMP180;6495;51.808;7.478;2023-07-13T07:45:55;101170.00;;;21.50
12854;BMP180;6495;51.808;7.478;2023-07-13T07:48:23;101170.00;;;21.60
12854;BMP180;6495;51.808;7.478;2023-07-13T07:50:53;101172.00;;;21.70
12854;BMP180;6495;51.808;7.478;2023-07-13T07:53:21;101173.00;;;21.80
12854;BMP180;6495;51.808;7.478;2023-07-13T07:55:49;101186.00;;;21.90
12854;BMP180;6495;51.808;7.478;2023-07-13T07:58:21;101178.00;;;22.00
12854;BMP180;6495;51.808;7.478;2023-07-13T08:00:52;101177.00;;;22.10
12854;BMP180;6495;51.808;7.478;2023-07-13T08:03:24;101181.00;;;22.10
12854;BMP180;6495;51.808;7.478;2023-07-13T08:05:56;101181.00;;;22.10
12854;BMP180;6495;51.808;7.478;2023-07-13T08:08:44;101179.00;;;22.10
12854;BMP180;6495;51.808;7.478;2023-07-13T08:11:13;101173.00;;;22.10
12854;BMP180;6495;51.808;7.478;2023-07-13T08:13:44;101174.00;;;22.00
12854;BMP180;6495;51.808;7.478;2023-07-13T08:16:13;101178.00;;;22.00
12854;BMP180;6495;51.808;7.478;2023-07-13T08:18:41;101177.00;;;22.00
12854;BMP180;6495;51.808;7.478;2023-07-13T08:21:11;101178.00;;;22.00
12854;BMP180;6495;51.808;7.478;2023-07-13T08:23:40;101174.00;;;22.00
12854;BMP180;6495;51.808;7.478;2023-07-13T08:26:09;101179.00;;;22.10
12854;BMP180;6495;51.808;7.478;2023-07-13T08:28:37;101174.00;;;22.20
12854;BMP180;6495;51.808;7.478;2023-07-13T08:31:07;101167.00;;;22.30
12854;BMP180;6495;51.808;7.478;2023-07-13T08:33:37;101166.00;;;22.30
12854;BMP180;6495;51.808;7.478;2023-07-13T08:36:08;101168.00;;;22.50
12854;BMP180;6495;51.808;7.478;2023-07-13T08:38:37;101173.00;;;22.60
12854;BMP180;6495;51.808;7.478;2023-07-13T08:41:15;101173.00;;;22.80
12854;BMP180;6495;51.808;7.478;2023-07-13T08:43:50;101178.00;;;22.90
12854;BMP180;6495;51.808;7.478;2023-07-13T08:46:24;101170.00;;;23.00
12854;BMP180;6495;51.808;7.478;2023-07-13T08:48:58;101174.00;;;23.00
12854;BMP180;6495;51.808;7.478;2023-07-13T08:51:42;101177.00;;;23.00
12854;BMP180;6495;51.808;7.478;2023-07-13T08:54:23;101183.00;;;23.00
12854;BMP180;6495;51.808;7.478;2023-07-13T08:56:56;101170.00;;;23.00
12854;BMP180;6495;51.808;7.478;2023-07-13T08:59:30;101172.00;;;23.10
12854;BMP180;6495;51.808;7.478;2023-07-13T09:02:23;101170.00;;;23.20
12854;BMP180;6495;51.808;7.478;2023-07-13T09:04:59;101174.00;;;23.20
12854;BMP180;6495;51.808;7.478;2023-07-13T09:07:53;101179.00;;;23.20
12854;BMP180;6495;51.808;7.478;2023-07-13T09:10:30;101174.00;;;23.30
12854;BMP180;6495;51.808;7.478;2023-07-13T09:13:15;101164.00;;;23.30
12854;BMP180;6495;51.808;7.478;2023-07-13T09:15:49;101169.00;;;23.30
12854;BMP180;6495;51.808;7.478;2023-07-13T09:18:27;101165.00;;;23.30
12854;BMP180;6495;51.808;7.478;2023-07-13T09:21:02;101169.00;;;23.50
12854;BMP180;6495;51.808;7.478;2023-07-13T09:23:32;101165.00;;;23.70
12854;BMP180;6495;51.808;7.478;2023-07-13T09:26:08;101168.00;;;23.80
12854;BMP180;6495;51.808;7.478;2023-07-13T09:28:42;101157.00;;;23.90
12854;BMP180;6495;51.808;7.478;2023-07-13T09:31:16;101160.00;;;24.00
12854;BMP180;6495;51.808;7.478;2023-07-13T09:33:46;101169.00;;;24.10
12854;BMP180;6495;51.808;7.478;2023-07-13T09:36:20;101164.00;;;24.10
12854;BMP180;6495;51.808;7.478;2023-07-13T09:38:59;101168.00;;;24.20
12854;BMP180;6495;51.808;7.478;2023-07-13T09:41:40;101180.00;;;24.20
12854;BMP180;6495;51.808;7.478;2023-07-13T09:44:12;101177.00;;;24.10
12854;BMP180;6495;51.808;7.478;2023-07-13T09:46:45;101167.00;;;24.10
12854;BMP180;6495;51.808;7.478;2023-07-13T09:49:14;101182.00;;;24.10
12854;BMP180;6495;51.808;7.478;2023-07-13T09:51:43;101173.00;;;24.10
12854;BMP180;6495;51.808;7.478;2023-07-13T09:54:20;101173.00;;;24.10
12854;BMP180;6495;51.808;7.478;2023-07-13T09:56:55;101182.00;;;24.10
12854;BMP180;6495;51.808;7.478;2023-07-13T09:59:29;101187.00;;;24.10
12854;BMP180;6495;51.808;7.478;2023-07-13T10:01:57;101186.00;;;24.20
12854;BMP180;6495;51.808;7.478;2023-07-13T10:04:31;101187.00;;;24.10
12854;BMP180;6495;51.808;7.478;2023-07-13T10:07:08;101181.00;;;24.20
12854;BMP180;6495;51.808;7.478;2023-07-13T10:09:55;101197.00;;;24.20
12854;BMP180;6495;51.808;7.478;2023-07-13T10:12:26;101185.00;;;24.20
12854;BMP180;6495;51.808;7.478;2023-07-13T10:14:57;101190.00;;;24.20
12854;BMP180;6495;51.808;7.478;2023-07-13T10:17:47;101192.00;;;24.30
12854;BMP180;6495;51.808;7.478;2023-07-13T10:20:18;101196.00;;;24.40
12854;BMP180;6495;51.808;7.478;2023-07-13T10:22:55;101190.00;;;24.40
12854;BMP180;6495;51.808;7.478;2023-07-13T10:25:27;101190.00;;;24.50
12854;BMP180;6495;51.808;7.478;2023-07-13T10:28:05;101196.00;;;24.50
12854;BMP180;6495;51.808;7.478;2023-07-13T10:30:42;101195.00;;;24.60
12854;BMP180;6495;51.808;7.478;2023-07-13T10:33:14;101192.00;;;24.70
12854;BMP180;6495;51.808;7.478;2023-07-13T10:35:44;101192.00;;;24.80
12854;BMP180;6495;51.808;7.478;2023-07-13T10:38:21;101193.00;;;24.80
12854;BMP180;6495;51.808;7.478;2023-07-13T10:40:58;101192.00;;;24.80
12854;BMP180;6495;51.808;7.478;2023-07-13T10:43:34;101189.00;;;24.80
12854;BMP180;6495;51.808;7.478;2023-07-13T10:46:06;101197.00;;;24.80
12854;BMP180;6495;51.808;7.478;2023-07-13T10:48:37;101197.00;;;24.90
12854;BMP180;6495;51.808;7.478;2023-07-13T10:51:09;101189.00;;;24.90
12854;BMP180;6495;51.808;7.478;2023-07-13T10:53:39;101205.00;;;24.90
12854;BMP180;6495;51.808;7.478;2023-07-13T10:56:23;101194.00;;;24.90
12854;BMP180;6495;51.808;7.478;2023-07-13T10:59:12;101199.00;;;24.90
12854;BMP180;6495;51.808;7.478;2023-07-13T11:01:54;101210.00;;;24.80
12854;BMP180;6495;51.808;7.478;2023-07-13T11:04:24;101196.00;;;24.90
12854;BMP180;6495;51.808;7.478;2023-07-13T11:06:58;101195.00;;;25.00
12854;BMP180;6495;51.808;7.478;2023-07-13T11:09:39;101196.00;;;25.00
12854;BMP180;6495;51.808;7.478;2023-07-13T11:12:26;101196.00;;;25.00
12854;BMP180;6495;51.808;7.478;2023-07-13T11:15:12;101203.00;;;25.10
12854;BMP180;6495;51.808;7.478;2023-07-13T11:17:50;101202.00;;;25.10
12854;BMP180;6495;51.808;7.478;2023-07-13T11:20:31;101205.00;;;25.30
12854;BMP180;6495;51.808;7.478;2023-07-13T11:23:28;101198.00;;;25.40
12854;BMP180;6495;51.808;7.478;2023-07-13T11:25:58;101195.00;;;25.40
12854;BMP180;6495;51.808;7.478;2023-07-13T11:28:31;101194.00;;;25.40
12854;BMP180;6495;51.808;7.478;2023-07-13T11:31:14;101191.00;;;25.40
12854;BMP180;6495;51.808;7.478;2023-07-13T11:33:57;101188.00;;;25.40
12854;BMP180;6495;51.808;7.478;2023-07-13T11:36:36;101191.00;;;25.50
12854;BMP180;6495;51.808;7.478;2023-07-13T11:39:18;101192.00;;;25.50
12854;BMP180;6495;51.808;7.478;2023-07-13T11:41:52;101194.00;;;25.40
12854;BMP180;6495;51.808;7.478;2023-07-13T11:44:26;101203.00;;;25.40
12854;BMP180;6495;51.808;7.478;2023-07-13T11:46:58;101195.00;;;25.20
12854;BMP180;6495;51.808;7.478;2023-07-13T11:49:32;101190.00;;;25.10
12854;BMP180;6495;51.808;7.478;2023-07-13T11:52:11;101192.00;;;25.30
12854;BMP180;6495;51.808;7.478;2023-07-13T11:54:49;101185.00;;;25.40
12854;BMP180;6495;51.808;7.478;2023-07-13T11:57:25;101186.00;;;25.40
12854;BMP180;6495;51.808;7.478;2023-07-13T11:59:56;101181.00;;;25.40
12854;BMP180;6495;51.808;7.478;2023-07-13T12:02:31;101189.00;;;25.30
12854;BMP180;6495;51.808;7.478;2023-07-13T12:05:03;101193.00;;;25.30
12854;BMP180;6495;51.808;7.478;2023-07-13T12:07:33;101186.00;;;25.40
12854;BMP180;6495;51.808;7.478;2023-07-13T12:10:03;101175.00;;;25.40
12854;BMP180;6495;51.808;7.478;2023-07-13T12:12:31;101186.00;;;25.30
12854;BMP180;6495;51.808;7.478;2023-07-13T12:15:00;101177.00;;;25.30
12854;BMP180;6495;51.808;7.478;2023-07-13T12:17:29;101196.00;;;25.30
12854;BMP180;6495;51.808;7.478;2023-07-13T12:19:58;101191.00;;;25.30
12854;BMP180;6495;51.808;7.478;2023-07-13T12:22:27;101188.00;;;25.30
12854;BMP180;6495;51.808;7.478;2023-07-13T12:24:56;101183.00;;;25.40
12854;BMP180;6495;51.808;7.478;2023-07-13T12:27:27;101178.00;;;25.50
12854;BMP180;6495;51.808;7.478;2023-07-13T12:30:01;101192.00;;;25.50
12854;BMP180;6495;51.808;7.478;2023-07-13T12:32:31;101186.00;;;25.50
12854;BMP180;6495;51.808;7.478;2023-07-13T12:35:15;101188.00;;;25.60
12854;BMP180;6495;51.808;7.478;2023-07-13T12:37:47;101188.00;;;25.50
12854;BMP180;6495;51.808;7.478;2023-07-13T12:40:18;101183.00;;;25.50
12854;BMP180;6495;51.808;7.478;2023-07-13T12:42:49;101194.00;;;25.40
12854;BMP180;6495;51.808;7.478;2023-07-13T12:45:21;101199.00;;;25.30
12854;BMP180;6495;51.808;7.478;2023-07-13T12:47:55;101199.00;;;25.20
12854;BMP180;6495;51.808;7.478;2023-07-13T12:50:37;101198.00;;;25.20
12854;BMP180;6495;51.808;7.478;2023-07-13T12:53:30;101201.00;;;25.20
12854;BMP180;6495;51.808;7.478;2023-07-13T12:56:02;101207.00;;;25.20
12854;BMP180;6495;51.808;7.478;2023-07-13T12:58:38;101212.00;;;25.30
12854;BMP180;6495;51.808;7.478;2023-07-13T13:01:10;101217.00;;;25.30
12854;BMP180;6495;51.808;7.478;2023-07-13T13:03:48;101216.00;;;25.30
12854;BMP180;6495;51.808;7.478;2023-07-13T13:06:26;101216.00;;;25.40
12854;BMP180;6495;51.808;7.478;2023-07-13T13:08:56;101224.00;;;25.30
12854;BMP180;6495;51.808;7.478;2023-07-13T13:11:28;101239.00;;;25.20
12854;BMP180;6495;51.808;7.478;2023-07-13T13:13:57;101245.00;;;24.90
12854;BMP180;6495;51.808;7.478;2023-07-13T13:16:31;101251.00;;;24.60
12854;BMP180;6495;51.808;7.478;2023-07-13T13:19:14;101246.00;;;24.30
12854;BMP180;6495;51.808;7.478;2023-07-13T13:21:45;101258.00;;;24.00
12854;BMP180;6495;51.808;7.478;2023-07-13T13:24:16;101271.00;;;23.80
12854;BMP180;6495;51.808;7.478;2023-07-13T13:26:46;101275.00;;;23.60
12854;BMP180;6495;51.808;7.478;2023-07-13T13:29:17;101283.00;;;23.40
12854;BMP180;6495;51.808;7.478;2023-07-13T13:31:47;101294.00;;;23.30
12854;BMP180;6495;51.808;7.478;2023-07-13T13:34:19;101302.00;;;23.10
12854;BMP180;6495;51.808;7.478;2023-07-13T13:36:51;101315.00;;;23.00
12854;BMP180;6495;51.808;7.478;2023-07-13T13:39:31;101323.00;;;22.90
12854;BMP180;6495;51.808;7.478;2023-07-13T13:42:01;101341.00;;;22.70
12854;BMP180;6495;51.808;7.478;2023-07-13T13:44:29;101346.00;;;22.60
12854;BMP180;6495;51.808;7.478;2023-07-13T13:46:58;101360.00;;;22.40
12854;BMP180;6495;51.808;7.478;2023-07-13T13:49:30;101358.00;;;22.20
12854;BMP180;6495;51.808;7.478;2023-07-13T13:51:58;101349.00;;;22.10
12854;BMP180;6495;51.808;7.478;2023-07-13T13:54:27;101356.00;;;22.10
12854;BMP180;6495;51.808;7.478;2023-07-13T13:56:56;101339.00;;;22.10
12854;BMP180;6495;51.808;7.478;2023-07-13T13:59:27;101341.00;;;22.00
12854;BMP180;6495;51.808;7.478;2023-07-13T14:01:55;101338.00;;;22.00
12854;BMP180;6495;51.808;7.478;2023-07-13T14:04:28;101341.00;;;22.00
12854;BMP180;6495;51.808;7.478;2023-07-13T14:06:57;101337.00;;;21.90
12854;BMP180;6495;51.808;7.478;2023-07-13T14:09:25;101320.00;;;21.90
12854;BMP180;6495;51.808;7.478;2023-07-13T14:11:54;101322.00;;;21.90
12854;BMP180;6495;51.808;7.478;2023-07-13T14:14:24;101330.00;;;21.90
12854;BMP180;6495;51.808;7.478;2023-07-13T14:16:54;101341.00;;;21.90
12854;BMP180;6495;51.808;7.478;2023-07-13T14:19:24;101340.00;;;21.90
12854;BMP180;6495;51.808;7.478;2023-07-13T14:21:55;101336.00;;;21.90
12854;BMP180;6495;51.808;7.478;2023-07-13T14:24:23;101331.00;;;21.90
12854;BMP180;6495;51.808;7.478;2023-07-13T14:26:52;101323.00;;;21.90
12854;BMP180;6495;51.808;7.478;2023-07-13T14:29:20;101321.00;;;21.90
12854;BMP180;6495;51.808;7.478;2023-07-13T14:31:51;101316.00;;;21.90
12854;BMP180;6495;51.808;7.478;2023-07-13T14:34:20;101315.00;;;21.90